Pagrindinis puslapis
METAR-TAF:

METAR-TAF

Oro uostai :

Antakija, Turkija

platuma: 36-21-46N, ilguma: 36-16-56E, Aukštis: 1950 m

Dabartinis oras

Ataskaita buvo paskelbta 1 valandą ir 7 minutes, ne 14:50 UTC
Vėjas 12 kt iš Pietvakarių
Temperatūra 26°C
Drėgmė 65%
Slėgis 1003 hPa
Matomumas 10 km arba daugiau
Išsisklaidę debesys ne aukštis 3500 ft

METAR: LTDA 231450Z 22012KT 9999 SCT035 26/19 Q1003 NOSIG

Laikas: 18:57 (15:57 UTC)

Prognozė

Ataskaita buvo paskelbta 2 valandos ir 17 minutes, ne 13:40 UTC
Prognozė galioja nuo 23 metu 15 UTC su 23 metu 24 UTC
Vėjas 17 kt iš Pietvakarių
Matomumas 10 km arba daugiau
Išsisklaidę debesys ne aukštis 3500 ft
Tapsmas
nuo 23 metu 18 UTC su 23 metu 21 UTC
Vėjas 8 kt iš Šiaurės Vakarų

TAF: LTDA 231340Z 2315/2324 23017KT 9999 SCT035 BECMG 2318/2321 32008KT

Orai ataskaitas ir orų prognozės (METAR, TAF).

turimą stotys yra geltonos ir raudonos taškus žemėlapyje.

Perkelti pele per norėdami pamatyti stoties vardą.

Tada spustelėkite, norėdami matyti oro stebėjimo ir prognozės.

Norėdami pakeisti žemėlapį: spustelėkite ant žalios mygtukų su juodo kryžiaus žemyn,; žalią mygtuką su brūkšneliu, jei norite nutolinti; arba žalių rodyklių gretimoms žemėlapius.


METAR-TAF: